sensor_id;sensor_type;location;lat;lon;timestamp;pressure;altitude;pressure_sealevel;temperature;humidity
70833;BME280;58452;59.418;17.962;2023-06-19T00:02:14;101405.22;;;18.11;82.65
70833;BME280;58452;59.418;17.962;2023-06-19T00:04:40;101406.19;;;18.10;82.66
70833;BME280;58452;59.418;17.962;2023-06-19T00:07:05;101410.78;;;18.08;83.41
70833;BME280;58452;59.418;17.962;2023-06-19T00:09:32;101406.84;;;18.12;83.12
70833;BME280;58452;59.418;17.962;2023-06-19T00:11:58;101409.16;;;18.07;83.33
70833;BME280;58452;59.418;17.962;2023-06-19T00:14:25;101403.56;;;18.10;83.45
70833;BME280;58452;59.418;17.962;2023-06-19T00:16:50;101404.41;;;18.11;83.03
70833;BME280;58452;59.418;17.962;2023-06-19T00:19:16;101411.41;;;18.10;83.25
70833;BME280;58452;59.418;17.962;2023-06-19T00:21:42;101401.31;;;18.07;83.43
70833;BME280;58452;59.418;17.962;2023-06-19T00:24:09;101406.38;;;18.09;83.40
70833;BME280;58452;59.418;17.962;2023-06-19T00:26:35;101411.06;;;18.13;82.92
70833;BME280;58452;59.418;17.962;2023-06-19T00:29:00;101405.69;;;18.15;82.75
70833;BME280;58452;59.418;17.962;2023-06-19T00:31:25;101411.72;;;18.15;82.82
70833;BME280;58452;59.418;17.962;2023-06-19T00:33:52;101409.72;;;18.17;83.08
70833;BME280;58452;59.418;17.962;2023-06-19T00:36:18;101410.31;;;18.04;83.19
70833;BME280;58452;59.418;17.962;2023-06-19T00:38:48;101412.41;;;18.09;83.25
70833;BME280;58452;59.418;17.962;2023-06-19T00:41:15;101415.31;;;18.14;83.05
70833;BME280;58452;59.418;17.962;2023-06-19T00:43:42;101410.09;;;18.14;82.99
70833;BME280;58452;59.418;17.962;2023-06-19T00:46:07;101410.44;;;18.11;83.10
70833;BME280;58452;59.418;17.962;2023-06-19T00:48:33;101417.28;;;18.12;82.98
70833;BME280;58452;59.418;17.962;2023-06-19T00:50:59;101413.69;;;18.13;83.12
70833;BME280;58452;59.418;17.962;2023-06-19T00:53:25;101420.53;;;18.14;83.15
70833;BME280;58452;59.418;17.962;2023-06-19T00:55:53;101423.97;;;18.15;83.06
70833;BME280;58452;59.418;17.962;2023-06-19T00:58:20;101422.78;;;18.17;83.22
70833;BME280;58452;59.418;17.962;2023-06-19T01:00:46;101409.78;;;18.09;83.04
70833;BME280;58452;59.418;17.962;2023-06-19T01:03:11;101409.00;;;18.09;83.03
70833;BME280;58452;59.418;17.962;2023-06-19T01:05:36;101413.97;;;18.18;82.71
70833;BME280;58452;59.418;17.962;2023-06-19T01:10:40;101422.28;;;18.22;82.65
70833;BME280;58452;59.418;17.962;2023-06-19T01:13:17;101413.50;;;18.15;82.92
70833;BME280;58452;59.418;17.962;2023-06-19T01:15:45;101417.00;;;18.07;83.22
70833;BME280;58452;59.418;17.962;2023-06-19T01:18:12;101412.41;;;18.09;83.07
70833;BME280;58452;59.418;17.962;2023-06-19T01:20:38;101411.16;;;18.05;83.11
70833;BME280;58452;59.418;17.962;2023-06-19T01:23:08;101413.56;;;18.06;83.01
70833;BME280;58452;59.418;17.962;2023-06-19T01:25:34;101410.78;;;18.08;82.87
70833;BME280;58452;59.418;17.962;2023-06-19T01:28:01;101419.72;;;18.14;82.55
70833;BME280;58452;59.418;17.962;2023-06-19T01:30:27;101415.31;;;18.14;82.97
70833;BME280;58452;59.418;17.962;2023-06-19T01:32:53;101417.75;;;18.16;82.74
70833;BME280;58452;59.418;17.962;2023-06-19T01:35:25;101416.59;;;18.18;82.35
70833;BME280;58452;59.418;17.962;2023-06-19T01:37:52;101421.81;;;18.18;82.64
70833;BME280;58452;59.418;17.962;2023-06-19T01:40:19;101419.09;;;18.12;82.40
70833;BME280;58452;59.418;17.962;2023-06-19T01:42:51;101419.59;;;18.07;82.74
70833;BME280;58452;59.418;17.962;2023-06-19T01:45:17;101416.22;;;17.98;83.32
70833;BME280;58452;59.418;17.962;2023-06-19T01:47:42;101423.38;;;18.04;82.94
70833;BME280;58452;59.418;17.962;2023-06-19T01:50:09;101411.66;;;18.00;82.68
70833;BME280;58452;59.418;17.962;2023-06-19T01:52:37;101416.06;;;18.00;83.41
70833;BME280;58452;59.418;17.962;2023-06-19T01:55:02;101416.88;;;18.00;82.72
70833;BME280;58452;59.418;17.962;2023-06-19T01:57:28;101416.75;;;17.94;82.90
70833;BME280;58452;59.418;17.962;2023-06-19T01:59:53;101415.94;;;17.93;82.99
70833;BME280;58452;59.418;17.962;2023-06-19T02:02:19;101416.06;;;18.00;83.06
70833;BME280;58452;59.418;17.962;2023-06-19T02:04:44;101413.81;;;17.97;82.83
70833;BME280;58452;59.418;17.962;2023-06-19T02:07:10;101416.69;;;18.02;82.66
70833;BME280;58452;59.418;17.962;2023-06-19T02:09:37;101432.38;;;18.02;82.75
70833;BME280;58452;59.418;17.962;2023-06-19T02:12:03;101421.91;;;18.02;82.38
70833;BME280;58452;59.418;17.962;2023-06-19T02:14:28;101418.97;;;18.05;82.28
70833;BME280;58452;59.418;17.962;2023-06-19T02:16:54;101418.63;;;18.08;82.12
70833;BME280;58452;59.418;17.962;2023-06-19T02:19:19;101426.28;;;18.10;82.49
70833;BME280;58452;59.418;17.962;2023-06-19T02:21:45;101426.31;;;18.01;82.32
70833;BME280;58452;59.418;17.962;2023-06-19T02:24:10;101430.16;;;17.91;82.51
70833;BME280;58452;59.418;17.962;2023-06-19T02:26:36;101418.09;;;17.90;83.20
70833;BME280;58452;59.418;17.962;2023-06-19T02:29:01;101424.59;;;17.94;82.42
70833;BME280;58452;59.418;17.962;2023-06-19T02:31:26;101417.03;;;17.99;82.59
70833;BME280;58452;59.418;17.962;2023-06-19T02:33:52;101417.84;;;17.99;82.31
70833;BME280;58452;59.418;17.962;2023-06-19T02:36:17;101421.09;;;18.01;82.45
70833;BME280;58452;59.418;17.962;2023-06-19T02:38:50;101414.72;;;18.04;82.33
70833;BME280;58452;59.418;17.962;2023-06-19T02:41:16;101422.63;;;17.96;82.85
70833;BME280;58452;59.418;17.962;2023-06-19T02:43:42;101420.31;;;18.01;82.82
70833;BME280;58452;59.418;17.962;2023-06-19T02:46:08;101421.59;;;18.05;82.42
70833;BME280;58452;59.418;17.962;2023-06-19T02:48:34;101422.91;;;18.01;82.76
70833;BME280;58452;59.418;17.962;2023-06-19T02:51:00;101424.53;;;18.02;82.39
70833;BME280;58452;59.418;17.962;2023-06-19T02:53:25;101428.31;;;17.99;82.34
70833;BME280;58452;59.418;17.962;2023-06-19T02:55:50;101429.94;;;18.00;82.40
70833;BME280;58452;59.418;17.962;2023-06-19T02:58:16;101430.09;;;17.99;82.41
70833;BME280;58452;59.418;17.962;2023-06-19T03:00:41;101422.25;;;17.99;82.19
70833;BME280;58452;59.418;17.962;2023-06-19T03:03:07;101422.38;;;18.05;82.24
70833;BME280;58452;59.418;17.962;2023-06-19T03:05:32;101424.38;;;18.03;81.95
70833;BME280;58452;59.418;17.962;2023-06-19T03:07:57;101422.91;;;18.01;82.08
70833;BME280;58452;59.418;17.962;2023-06-19T03:10:23;101412.47;;;18.01;82.29
70833;BME280;58452;59.418;17.962;2023-06-19T03:12:48;101416.22;;;17.98;82.11
70833;BME280;58452;59.418;17.962;2023-06-19T03:15:14;101417.41;;;17.96;82.24
70833;BME280;58452;59.418;17.962;2023-06-19T03:17:39;101417.03;;;17.99;82.00
70833;BME280;58452;59.418;17.962;2023-06-19T03:20:05;101420.13;;;18.02;82.13
70833;BME280;58452;59.418;17.962;2023-06-19T03:22:31;101420.31;;;18.01;81.87
70833;BME280;58452;59.418;17.962;2023-06-19T03:24:56;101424.84;;;18.07;82.10
70833;BME280;58452;59.418;17.962;2023-06-19T03:27:22;101414.06;;;18.02;81.74
70833;BME280;58452;59.418;17.962;2023-06-19T03:29:47;101420.78;;;18.04;81.80
70833;BME280;58452;59.418;17.962;2023-06-19T03:32:12;101417.22;;;17.97;81.97
70833;BME280;58452;59.418;17.962;2023-06-19T03:34:38;101420.13;;;18.02;81.74
70833;BME280;58452;59.418;17.962;2023-06-19T03:37:03;101418.47;;;18.01;82.20
70833;BME280;58452;59.418;17.962;2023-06-19T03:39:29;101411.47;;;18.02;81.91
70833;BME280;58452;59.418;17.962;2023-06-19T03:41:55;101410.66;;;18.01;81.60
70833;BME280;58452;59.418;17.962;2023-06-19T03:44:20;101409.88;;;18.01;81.95
70833;BME280;58452;59.418;17.962;2023-06-19T03:46:46;101407.56;;;17.98;82.44
70833;BME280;58452;59.418;17.962;2023-06-19T03:49:12;101417.50;;;18.02;82.42
70833;BME280;58452;59.418;17.962;2023-06-19T03:51:38;101412.94;;;18.04;82.60
70833;BME280;58452;59.418;17.962;2023-06-19T03:54:03;101416.38;;;18.05;82.83
70833;BME280;58452;59.418;17.962;2023-06-19T03:56:29;101415.34;;;18.06;82.47
70833;BME280;58452;59.418;17.962;2023-06-19T03:58:54;101417.63;;;18.09;82.74
70833;BME280;58452;59.418;17.962;2023-06-19T04:01:20;101410.78;;;18.08;82.45
70833;BME280;58452;59.418;17.962;2023-06-19T04:03:45;101423.00;;;18.16;82.37
70833;BME280;58452;59.418;17.962;2023-06-19T04:06:10;101425.72;;;18.22;82.28
70833;BME280;58452;59.418;17.962;2023-06-19T04:08:36;101425.00;;;18.28;81.79
70833;BME280;58452;59.418;17.962;2023-06-19T04:11:02;101425.66;;;18.30;81.88
70833;BME280;58452;59.418;17.962;2023-06-19T04:13:27;101427.81;;;18.27;81.62
70833;BME280;58452;59.418;17.962;2023-06-19T04:15:52;101427.25;;;18.31;81.85
70833;BME280;58452;59.418;17.962;2023-06-19T04:18:18;101429.19;;;18.37;81.36
70833;BME280;58452;59.418;17.962;2023-06-19T04:20:43;101424.59;;;18.39;81.38
70833;BME280;58452;59.418;17.962;2023-06-19T04:23:09;101428.13;;;18.46;80.75
70833;BME280;58452;59.418;17.962;2023-06-19T04:25:34;101423.88;;;18.45;80.95
70833;BME280;58452;59.418;17.962;2023-06-19T04:28:00;101432.22;;;18.49;80.59
70833;BME280;58452;59.418;17.962;2023-06-19T04:30:28;101430.09;;;18.52;80.66
70833;BME280;58452;59.418;17.962;2023-06-19T04:32:54;101425.16;;;18.49;80.19
70833;BME280;58452;59.418;17.962;2023-06-19T04:35:19;101425.47;;;18.54;79.94
70833;BME280;58452;59.418;17.962;2023-06-19T04:37:45;101420.88;;;18.57;80.18
70833;BME280;58452;59.418;17.962;2023-06-19T04:40:10;101430.66;;;18.63;80.20
70833;BME280;58452;59.418;17.962;2023-06-19T04:42:36;101417.19;;;18.51;80.32
70833;BME280;58452;59.418;17.962;2023-06-19T04:45:04;101420.88;;;18.57;80.22
70833;BME280;58452;59.418;17.962;2023-06-19T04:47:32;101422.50;;;18.58;79.91
70833;BME280;58452;59.418;17.962;2023-06-19T04:49:58;101426.09;;;18.57;80.18
70833;BME280;58452;59.418;17.962;2023-06-19T04:52:23;101435.88;;;18.63;80.09
70833;BME280;58452;59.418;17.962;2023-06-19T04:54:49;101433.88;;;18.65;80.27
70833;BME280;58452;59.418;17.962;2023-06-19T04:57:14;101429.09;;;18.68;80.27
70833;BME280;58452;59.418;17.962;2023-06-19T04:59:42;101436.78;;;18.70;80.37
70833;BME280;58452;59.418;17.962;2023-06-19T05:02:07;101441.66;;;18.73;80.18
70833;BME280;58452;59.418;17.962;2023-06-19T05:04:33;101436.06;;;18.76;79.98
70833;BME280;58452;59.418;17.962;2023-06-19T05:06:59;101439.34;;;18.78;79.88
70833;BME280;58452;59.418;17.962;2023-06-19T05:09:24;101444.56;;;18.78;79.42
70833;BME280;58452;59.418;17.962;2023-06-19T05:11:50;101445.56;;;18.77;79.69
70833;BME280;58452;59.418;17.962;2023-06-19T05:14:15;101450.41;;;18.80;79.62
70833;BME280;58452;59.418;17.962;2023-06-19T05:16:40;101452.66;;;18.83;79.36
70833;BME280;58452;59.418;17.962;2023-06-19T05:19:06;101448.72;;;18.87;79.93
70833;BME280;58452;59.418;17.962;2023-06-19T05:21:31;101448.97;;;18.77;80.57
70833;BME280;58452;59.418;17.962;2023-06-19T05:23:57;101451.06;;;18.82;80.51
70833;BME280;58452;59.418;17.962;2023-06-19T05:26:22;101458.81;;;18.90;80.10
70833;BME280;58452;59.418;17.962;2023-06-19T05:28:49;101451.53;;;18.85;80.13
70833;BME280;58452;59.418;17.962;2023-06-19T05:31:15;101459.47;;;18.92;79.98
70833;BME280;58452;59.418;17.962;2023-06-19T05:33:41;101460.09;;;18.94;79.47
70833;BME280;58452;59.418;17.962;2023-06-19T05:36:07;101460.75;;;18.96;79.34
70833;BME280;58452;59.418;17.962;2023-06-19T05:38:32;101467.41;;;18.98;78.82
70833;BME280;58452;59.418;17.962;2023-06-19T05:40:58;101458.56;;;18.99;79.05
70833;BME280;58452;59.418;17.962;2023-06-19T05:43:23;101458.75;;;18.98;79.16
70833;BME280;58452;59.418;17.962;2023-06-19T05:45:53;101461.72;;;18.95;79.27
70833;BME280;58452;59.418;17.962;2023-06-19T05:48:19;101459.63;;;18.90;79.28
70833;BME280;58452;59.418;17.962;2023-06-19T05:50:44;101464.97;;;18.97;79.00
70833;BME280;58452;59.418;17.962;2023-06-19T05:53:09;101468.84;;;19.01;78.96
70833;BME280;58452;59.418;17.962;2023-06-19T05:55:35;101462.28;;;19.05;79.37
70833;BME280;58452;59.418;17.962;2023-06-19T05:58:02;101462.56;;;19.10;79.46
70833;BME280;58452;59.418;17.962;2023-06-19T06:00:27;101469.69;;;19.16;79.09
70833;BME280;58452;59.418;17.962;2023-06-19T06:02:56;101468.41;;;19.12;78.89
70833;BME280;58452;59.418;17.962;2023-06-19T06:05:21;101461.34;;;18.98;79.13
70833;BME280;58452;59.418;17.962;2023-06-19T06:07:46;101473.56;;;19.06;78.88
70833;BME280;58452;59.418;17.962;2023-06-19T06:10:12;101469.94;;;19.07;78.64
70833;BME280;58452;59.418;17.962;2023-06-19T06:12:37;101472.38;;;19.08;77.84
70833;BME280;58452;59.418;17.962;2023-06-19T06:15:05;101483.28;;;19.12;78.04
70833;BME280;58452;59.418;17.962;2023-06-19T06:17:30;101479.50;;;18.99;78.75
70833;BME280;58452;59.418;17.962;2023-06-19T06:19:56;101480.50;;;18.98;78.61
70833;BME280;58452;59.418;17.962;2023-06-19T06:22:21;101485.56;;;19.00;78.48
70833;BME280;58452;59.418;17.962;2023-06-19T06:24:47;101479.41;;;18.93;79.40
70833;BME280;58452;59.418;17.962;2023-06-19T06:27:13;101484.75;;;18.99;79.28
70833;BME280;58452;59.418;17.962;2023-06-19T06:29:38;101476.00;;;19.07;79.45
70833;BME280;58452;59.418;17.962;2023-06-19T06:32:05;101474.28;;;19.14;79.45
70833;BME280;58452;59.418;17.962;2023-06-19T06:34:32;101468.78;;;19.09;79.80
70833;BME280;58452;59.418;17.962;2023-06-19T06:36:58;101472.03;;;19.11;80.11
70833;BME280;58452;59.418;17.962;2023-06-19T06:39:23;101471.31;;;19.17;80.34
70833;BME280;58452;59.418;17.962;2023-06-19T06:41:49;101475.75;;;19.31;79.81
70833;BME280;58452;59.418;17.962;2023-06-19T06:44:15;101471.84;;;19.27;79.76
70833;BME280;58452;59.418;17.962;2023-06-19T06:46:40;101480.59;;;19.34;79.19
70833;BME280;58452;59.418;17.962;2023-06-19T06:49:06;101480.88;;;19.39;77.99
70833;BME280;58452;59.418;17.962;2023-06-19T06:51:31;101475.31;;;19.42;77.41
70833;BME280;58452;59.418;17.962;2023-06-19T06:53:57;101474.25;;;19.52;77.45
70833;BME280;58452;59.418;17.962;2023-06-19T06:56:22;101483.25;;;19.49;77.99
70833;BME280;58452;59.418;17.962;2023-06-19T06:58:48;101485.78;;;19.57;77.90
70833;BME280;58452;59.418;17.962;2023-06-19T07:01:13;101482.25;;;19.65;77.74
70833;BME280;58452;59.418;17.962;2023-06-19T07:03:38;101476.03;;;19.66;76.95
70833;BME280;58452;59.418;17.962;2023-06-19T07:06:04;101482.53;;;19.70;76.65
70833;BME280;58452;59.418;17.962;2023-06-19T07:08:30;101486.22;;;19.75;76.23
70833;BME280;58452;59.418;17.962;2023-06-19T07:10:55;101484.69;;;19.81;76.13
70833;BME280;58452;59.418;17.962;2023-06-19T07:13:21;101489.19;;;19.87;75.45
70833;BME280;58452;59.418;17.962;2023-06-19T07:15:46;101486.56;;;19.87;75.08
70833;BME280;58452;59.418;17.962;2023-06-19T07:18:12;101479.16;;;19.90;75.39
70833;BME280;58452;59.418;17.962;2023-06-19T07:20:37;101480.84;;;19.98;75.51
70833;BME280;58452;59.418;17.962;2023-06-19T07:23:02;101482.09;;;20.02;75.06
70833;BME280;58452;59.418;17.962;2023-06-19T07:25:28;101480.91;;;20.05;75.12
70833;BME280;58452;59.418;17.962;2023-06-19T07:27:54;101478.34;;;20.11;74.72
70833;BME280;58452;59.418;17.962;2023-06-19T07:30:20;101468.13;;;20.16;74.18
70833;BME280;58452;59.418;17.962;2023-06-19T07:32:45;101475.00;;;20.17;74.82
70833;BME280;58452;59.418;17.962;2023-06-19T07:35:10;101474.00;;;20.18;74.43
70833;BME280;58452;59.418;17.962;2023-06-19T07:37:36;101476.25;;;20.21;73.49
70833;BME280;58452;59.418;17.962;2023-06-19T07:40:02;101472.13;;;20.12;73.16
70833;BME280;58452;59.418;17.962;2023-06-19T07:42:28;101473.81;;;20.20;73.59
70833;BME280;58452;59.418;17.962;2023-06-19T07:44:54;101471.47;;;20.25;73.25
70833;BME280;58452;59.418;17.962;2023-06-19T07:47:19;101479.28;;;20.39;73.16
70833;BME280;58452;59.418;17.962;2023-06-19T07:49:46;101477.28;;;20.41;73.12
70833;BME280;58452;59.418;17.962;2023-06-19T07:52:12;101475.78;;;20.54;72.28
70833;BME280;58452;59.418;17.962;2023-06-19T07:54:57;101486.97;;;20.41;72.54
70833;BME280;58452;59.418;17.962;2023-06-19T07:57:24;101478.41;;;20.54;72.49
70833;BME280;58452;59.418;17.962;2023-06-19T07:59:50;101486.38;;;20.67;72.15
70833;BME280;58452;59.418;17.962;2023-06-19T08:02:16;101484.44;;;20.75;70.79
70833;BME280;58452;59.418;17.962;2023-06-19T08:04:41;101486.72;;;20.85;70.81
70833;BME280;58452;59.418;17.962;2023-06-19T08:07:07;101475.72;;;20.96;70.78
70833;BME280;58452;59.418;17.962;2023-06-19T08:09:32;101483.88;;;21.08;70.83
70833;BME280;58452;59.418;17.962;2023-06-19T08:11:58;101488.81;;;21.17;70.53
70833;BME280;58452;59.418;17.962;2023-06-19T08:14:23;101479.53;;;21.21;69.40
70833;BME280;58452;59.418;17.962;2023-06-19T08:16:49;101479.16;;;21.24;68.45
70833;BME280;58452;59.418;17.962;2023-06-19T08:19:14;101476.31;;;21.19;68.48
70833;BME280;58452;59.418;17.962;2023-06-19T08:21:40;101468.44;;;21.19;68.26
70833;BME280;58452;59.418;17.962;2023-06-19T08:24:05;101476.06;;;21.14;68.99
70833;BME280;58452;59.418;17.962;2023-06-19T08:26:31;101477.53;;;21.23;69.46
70833;BME280;58452;59.418;17.962;2023-06-19T08:28:56;101481.19;;;21.29;69.04
70833;BME280;58452;59.418;17.962;2023-06-19T08:31:22;101476.63;;;21.37;68.21
70833;BME280;58452;59.418;17.962;2023-06-19T08:33:56;101480.25;;;21.43;67.69
70833;BME280;58452;59.418;17.962;2023-06-19T08:36:22;101479.53;;;21.56;67.92
70833;BME280;58452;59.418;17.962;2023-06-19T08:38:48;101483.22;;;21.68;67.78
70833;BME280;58452;59.418;17.962;2023-06-19T08:41:18;101482.66;;;21.79;67.51
70833;BME280;58452;59.418;17.962;2023-06-19T08:43:47;101480.28;;;21.90;67.20
70833;BME280;58452;59.418;17.962;2023-06-19T08:46:18;101485.22;;;22.13;66.54
70833;BME280;58452;59.418;17.962;2023-06-19T08:48:44;101485.25;;;22.33;65.34
70833;BME280;58452;59.418;17.962;2023-06-19T08:51:10;101484.47;;;22.52;64.76
70833;BME280;58452;59.418;17.962;2023-06-19T08:53:47;101478.38;;;22.65;64.19
70833;BME280;58452;59.418;17.962;2023-06-19T08:56:13;101473.56;;;22.81;63.02
70833;BME280;58452;59.418;17.962;2023-06-19T08:58:38;101472.34;;;22.84;63.61
70833;BME280;58452;59.418;17.962;2023-06-19T09:01:04;101469.88;;;23.02;63.87
70833;BME280;58452;59.418;17.962;2023-06-19T09:03:29;101468.66;;;23.11;62.18
70833;BME280;58452;59.418;17.962;2023-06-19T09:05:54;101469.03;;;23.28;61.86
70833;BME280;58452;59.418;17.962;2023-06-19T09:08:22;101469.41;;;23.45;61.74
70833;BME280;58452;59.418;17.962;2023-06-19T09:11:03;101464.09;;;23.58;60.58
70833;BME280;58452;59.418;17.962;2023-06-19T09:13:30;101477.03;;;23.66;60.61
70833;BME280;58452;59.418;17.962;2023-06-19T09:16:05;101476.97;;;23.79;60.71
70833;BME280;58452;59.418;17.962;2023-06-19T09:18:45;101474.13;;;23.74;61.02
70833;BME280;58452;59.418;17.962;2023-06-19T09:23:43;101481.75;;;23.51;61.00
70833;BME280;58452;59.418;17.962;2023-06-19T09:26:09;101476.63;;;23.69;60.93
70833;BME280;58452;59.418;17.962;2023-06-19T09:28:40;101479.78;;;23.84;60.94
70833;BME280;58452;59.418;17.962;2023-06-19T09:31:06;101480.63;;;23.78;60.50
70833;BME280;58452;59.418;17.962;2023-06-19T09:33:33;101489.06;;;23.93;60.16
70833;BME280;58452;59.418;17.962;2023-06-19T09:36:01;101488.63;;;23.96;59.40
70833;BME280;58452;59.418;17.962;2023-06-19T09:38:32;101490.78;;;24.12;58.66
70833;BME280;58452;59.418;17.962;2023-06-19T09:41:01;101480.84;;;24.21;58.43
70833;BME280;58452;59.418;17.962;2023-06-19T09:43:54;101489.94;;;24.25;57.83
70833;BME280;58452;59.418;17.962;2023-06-19T09:46:26;101490.56;;;24.20;57.50
70833;BME280;58452;59.418;17.962;2023-06-19T09:48:53;101490.13;;;24.23;57.67
70833;BME280;58452;59.418;17.962;2023-06-19T09:51:33;101489.34;;;24.23;57.31
70833;BME280;58452;59.418;17.962;2023-06-19T09:54:02;101485.72;;;24.17;57.62
70833;BME280;58452;59.418;17.962;2023-06-19T09:56:29;101489.66;;;23.37;58.06
70833;BME280;58452;59.418;17.962;2023-06-19T09:58:57;101481.56;;;23.46;59.31
70833;BME280;58452;59.418;17.962;2023-06-19T10:01:29;101488.44;;;23.53;59.30
70833;BME280;58452;59.418;17.962;2023-06-19T10:04:07;101488.03;;;23.50;59.20
70833;BME280;58452;59.418;17.962;2023-06-19T10:06:41;101488.22;;;23.55;59.72
70833;BME280;58452;59.418;17.962;2023-06-19T10:09:08;101483.56;;;23.57;59.57
70833;BME280;58452;59.418;17.962;2023-06-19T10:11:49;101486.81;;;23.59;59.15
70833;BME280;58452;59.418;17.962;2023-06-19T10:14:17;101484.75;;;23.61;59.37
70833;BME280;58452;59.418;17.962;2023-06-19T10:16:44;101478.69;;;23.54;59.24
70833;BME280;58452;59.418;17.962;2023-06-19T10:19:17;101486.81;;;23.59;58.59
70833;BME280;58452;59.418;17.962;2023-06-19T10:21:48;101487.81;;;23.58;58.79
70833;BME280;58452;59.418;17.962;2023-06-19T10:24:16;101490.88;;;23.55;59.00
70833;BME280;58452;59.418;17.962;2023-06-19T10:26:44;101485.22;;;23.51;58.84
70833;BME280;58452;59.418;17.962;2023-06-19T10:29:16;101490.91;;;23.28;59.44
70833;BME280;58452;59.418;17.962;2023-06-19T10:31:42;101492.97;;;23.13;59.68
70833;BME280;58452;59.418;17.962;2023-06-19T10:34:09;101492.97;;;23.13;60.29
70833;BME280;58452;59.418;17.962;2023-06-19T10:36:35;101490.34;;;23.13;60.82
70833;BME280;58452;59.418;17.962;2023-06-19T10:39:00;101485.28;;;23.18;61.26
70833;BME280;58452;59.418;17.962;2023-06-19T10:41:26;101494.59;;;23.14;60.29
70833;BME280;58452;59.418;17.962;2023-06-19T10:43:59;101482.84;;;22.97;60.16
70833;BME280;58452;59.418;17.962;2023-06-19T10:46:29;101480.84;;;22.99;60.48
70833;BME280;58452;59.418;17.962;2023-06-19T10:48:55;101485.69;;;23.02;60.86
70833;BME280;58452;59.418;17.962;2023-06-19T10:51:30;101484.91;;;22.88;61.06
70833;BME280;58452;59.418;17.962;2023-06-19T10:53:56;101488.16;;;22.77;60.29
70833;BME280;58452;59.418;17.962;2023-06-19T10:56:22;101488.97;;;22.78;61.31
70833;BME280;58452;59.418;17.962;2023-06-19T10:58:48;101490.94;;;22.50;62.11
70833;BME280;58452;59.418;17.962;2023-06-19T11:01:14;101491.16;;;22.42;61.94
70833;BME280;58452;59.418;17.962;2023-06-19T11:03:39;101495.78;;;22.39;62.38
70833;BME280;58452;59.418;17.962;2023-06-19T11:06:05;101499.22;;;22.40;62.38
70833;BME280;58452;59.418;17.962;2023-06-19T11:08:30;101497.00;;;22.44;62.55
70833;BME280;58452;59.418;17.962;2023-06-19T11:10:55;101503.91;;;22.45;63.11
70833;BME280;58452;59.418;17.962;2023-06-19T11:13:21;101502.84;;;22.46;62.45
70833;BME280;58452;59.418;17.962;2023-06-19T11:15:47;101511.78;;;22.45;62.17
70833;BME280;58452;59.418;17.962;2023-06-19T11:18:15;101512.38;;;22.33;62.08
70833;BME280;58452;59.418;17.962;2023-06-19T11:20:48;101534.81;;;22.29;61.55
70833;BME280;58452;59.418;17.962;2023-06-19T11:23:16;101559.28;;;22.23;62.45
70833;BME280;58452;59.418;17.962;2023-06-19T11:25:42;101544.69;;;22.14;65.24
70833;BME280;58452;59.418;17.962;2023-06-19T11:28:15;101544.28;;;22.11;66.36
70833;BME280;58452;59.418;17.962;2023-06-19T11:30:43;101551.50;;;22.02;67.28
70833;BME280;58452;59.418;17.962;2023-06-19T11:33:21;101538.94;;;21.91;67.75
70833;BME280;58452;59.418;17.962;2023-06-19T11:35:52;101544.50;;;21.75;68.62
70833;BME280;58452;59.418;17.962;2023-06-19T11:38:22;101535.72;;;21.61;69.28
70833;BME280;58452;59.418;17.962;2023-06-19T11:40:48;101539.53;;;21.52;69.22
70833;BME280;58452;59.418;17.962;2023-06-19T11:43:24;101534.00;;;21.40;69.93
70833;BME280;58452;59.418;17.962;2023-06-19T11:45:50;101536.78;;;21.32;70.58
70833;BME280;58452;59.418;17.962;2023-06-19T11:48:24;101524.00;;;21.23;70.86
70833;BME280;58452;59.418;17.962;2023-06-19T11:50:50;101528.38;;;21.16;71.52
70833;BME280;58452;59.418;17.962;2023-06-19T11:53:17;101527.69;;;21.07;71.66
70833;BME280;58452;59.418;17.962;2023-06-19T11:55:42;101528.19;;;20.96;72.17
70833;BME280;58452;59.418;17.962;2023-06-19T11:58:09;101528.97;;;20.90;72.66
70833;BME280;58452;59.418;17.962;2023-06-19T12:00:36;101527.53;;;20.87;73.21
70833;BME280;58452;59.418;17.962;2023-06-19T12:03:01;101527.25;;;20.76;74.23
70833;BME280;58452;59.418;17.962;2023-06-19T12:05:27;101528.84;;;20.77;74.59
70833;BME280;58452;59.418;17.962;2023-06-19T12:07:52;101519.97;;;20.78;75.28
70833;BME280;58452;59.418;17.962;2023-06-19T12:10:18;101522.44;;;20.79;76.04
70833;BME280;58452;59.418;17.962;2023-06-19T12:12:43;101517.59;;;20.83;76.18
70833;BME280;58452;59.418;17.962;2023-06-19T12:15:09;101512.53;;;20.81;76.45
70833;BME280;58452;59.418;17.962;2023-06-19T12:17:34;101515.22;;;20.88;76.39
70833;BME280;58452;59.418;17.962;2023-06-19T12:20:01;101511.22;;;20.92;76.28
70833;BME280;58452;59.418;17.962;2023-06-19T12:22:30;101506.59;;;20.94;76.40
70833;BME280;58452;59.418;17.962;2023-06-19T12:24:55;101505.56;;;20.95;76.31
70833;BME280;58452;59.418;17.962;2023-06-19T12:27:21;101502.38;;;21.00;76.15
70833;BME280;58452;59.418;17.962;2023-06-19T12:29:46;101495.97;;;21.02;76.02
70833;BME280;58452;59.418;17.962;2023-06-19T12:32:12;101495.56;;;21.05;76.21
70833;BME280;58452;59.418;17.962;2023-06-19T12:34:37;101498.41;;;21.10;76.29
70833;BME280;58452;59.418;17.962;2023-06-19T12:37:03;101492.56;;;21.08;76.65
70833;BME280;58452;59.418;17.962;2023-06-19T12:39:28;101506.19;;;21.18;76.85
70833;BME280;58452;59.418;17.962;2023-06-19T12:41:53;101499.53;;;21.22;77.15
70833;BME280;58452;59.418;17.962;2023-06-19T12:44:21;101503.03;;;21.29;77.09